Time;durP1;ratioP1;P1;durP2;ratioP2;P2;SDS_P1;SDS_P2;PMS_P1;PMS_P2;Temp;Humidity;BMP_temperature;BMP_pressure;BME280_temperature;BME280_humidity;BME280_pressure;Samples;Min_cycle;Max_cycle;Signal;HPM_P1;HPM_P2
2024/03/28 00:01:39;;;;;;;2.30;1.90;;;;;;;;;;4627938;30;20461;-80
2024/03/28 00:04:05;;;;;;;2.50;2.00;;;;;;;;;;4617793;30;20439;-80
2024/03/28 00:06:31;;;;;;;3.20;2.00;;;;;;;;;;4633824;30;20495;-80
2024/03/28 00:08:57;;;;;;;3.60;2.30;;;;;;;;;;4650495;30;20460;-80
2024/03/28 00:11:23;;;;;;;3.07;2.60;;;;;;;;;;4684975;30;20439;-80
2024/03/28 00:13:49;;;;;;;4.47;2.37;;;;;;;;;;4679102;30;20493;-81
2024/03/28 00:16:15;;;;;;;3.97;2.07;;;;;;;;;;4660675;30;20474;-80
2024/03/28 00:18:41;;;;;;;4.80;2.10;;;;;;;;;;4669469;30;20516;-80
2024/03/28 00:21:07;;;;;;;5.10;2.40;;;;;;;;;;4678122;30;20311;-80
2024/03/28 00:23:33;;;;;;;3.20;2.43;;;;;;;;;;4665040;30;20460;-80
2024/03/28 00:25:59;;;;;;;2.20;1.97;;;;;;;;;;4693782;30;20449;-80
2024/03/28 00:28:25;;;;;;;3.08;2.20;;;;;;;;;;4679978;30;20456;-80
2024/03/28 00:30:52;;;;;;;2.50;2.30;;;;;;;;;;4654289;30;20234;-80
2024/03/28 00:33:18;;;;;;;3.53;2.55;;;;;;;;;;4672046;30;20360;-79
2024/03/28 00:35:48;;;;;;;2.95;2.10;;;;;;;;;;4673080;30;20199;-80
2024/03/28 00:38:14;;;;;;;2.40;2.17;;;;;;;;;;4699161;30;20206;-81
2024/03/28 00:40:53;;;;;;;2.75;1.83;;;;;;;;;;4662711;30;20272;-80
2024/03/28 00:43:20;;;;;;;3.00;2.13;;;;;;;;;;4664471;30;20254;-80
2024/03/28 00:45:46;;;;;;;3.55;1.98;;;;;;;;;;4668780;30;20303;-80
2024/03/28 00:48:13;;;;;;;3.05;2.75;;;;;;;;;;4670138;30;20707;-80
2024/03/28 00:50:39;;;;;;;2.22;1.85;;;;;;;;;;4706169;30;20226;-80
2024/03/28 00:53:05;;;;;;;2.45;2.20;;;;;;;;;;4659529;30;20701;-80
2024/03/28 00:55:31;;;;;;;2.80;2.30;;;;;;;;;;4689579;30;20243;-81
2024/03/28 00:57:57;;;;;;;4.60;2.50;;;;;;;;;;4699977;30;20205;-80
2024/03/28 01:00:23;;;;;;;2.60;2.13;;;;;;;;;;4675260;30;20565;-80
2024/03/28 01:02:49;;;;;;;3.53;2.40;;;;;;;;;;4686791;30;20214;-81
2024/03/28 01:05:15;;;;;;;2.60;2.37;;;;;;;;;;4702586;30;20468;-80
2024/03/28 01:07:41;;;;;;;4.47;2.50;;;;;;;;;;4704215;30;20488;-80
2024/03/28 01:10:07;;;;;;;2.75;2.47;;;;;;;;;;4754953;30;20334;-80
2024/03/28 01:12:33;;;;;;;3.80;2.70;;;;;;;;;;4768544;30;20199;-80
2024/03/28 01:14:59;;;;;;;2.47;2.27;;;;;;;;;;4769303;30;20290;-80
2024/03/28 01:17:25;;;;;;;4.10;3.60;;;;;;;;;;4739363;30;20462;-81
2024/03/28 01:19:52;;;;;;;3.22;2.92;;;;;;;;;;4715134;30;20502;-80
2024/03/28 01:22:18;;;;;;;3.20;2.90;;;;;;;;;;4688239;30;20681;-80
2024/03/28 01:24:44;;;;;;;3.95;2.80;;;;;;;;;;4706333;30;20301;-80
2024/03/28 01:27:10;;;;;;;5.80;2.87;;;;;;;;;;4712996;30;20360;-80
2024/03/28 01:29:36;;;;;;;3.30;3.00;;;;;;;;;;4694704;30;20453;-81
2024/03/28 01:32:02;;;;;;;5.20;3.03;;;;;;;;;;4683020;30;20931;-80
2024/03/28 01:34:28;;;;;;;3.58;3.28;;;;;;;;;;4724162;30;20534;-80
2024/03/28 01:36:54;;;;;;;4.00;2.93;;;;;;;;;;4740018;30;20267;-81
2024/03/28 01:39:20;;;;;;;4.00;3.65;;;;;;;;;;4755826;30;20477;-80
2024/03/28 01:41:52;;;;;;;4.72;3.50;;;;;;;;;;4747601;30;20240;-81
2024/03/28 01:44:20;;;;;;;5.25;3.72;;;;;;;;;;4762023;30;20195;-81
2024/03/28 01:46:46;;;;;;;3.35;2.78;;;;;;;;;;4775762;30;20285;-81
2024/03/28 01:49:13;;;;;;;5.93;4.13;;;;;;;;;;4738733;30;20296;-81
2024/03/28 01:51:40;;;;;;;6.47;3.70;;;;;;;;;;4735696;30;20228;-80
2024/03/28 01:54:06;;;;;;;5.45;3.30;;;;;;;;;;4715940;30;20203;-80
2024/03/28 01:56:34;;;;;;;3.25;2.92;;;;;;;;;;4736334;30;20422;-80
2024/03/28 01:59:00;;;;;;;4.15;3.67;;;;;;;;;;4753158;30;20199;-80
2024/03/28 02:01:26;;;;;;;5.85;4.18;;;;;;;;;;4756024;30;20227;-81
2024/03/28 02:03:52;;;;;;;3.60;3.30;;;;;;;;;;4714517;30;20229;-80
2024/03/28 02:06:18;;;;;;;5.00;3.33;;;;;;;;;;4778948;30;20811;-81
2024/03/28 02:08:44;;;;;;;3.87;3.47;;;;;;;;;;4747430;29;20232;-80
2024/03/28 02:11:10;;;;;;;4.55;3.45;;;;;;;;;;4758149;30;20427;-80
2024/03/28 02:13:36;;;;;;;4.10;3.72;;;;;;;;;;4767046;30;20207;-80
2024/03/28 02:16:02;;;;;;;6.50;3.78;;;;;;;;;;4775553;30;20208;-81
2024/03/28 02:18:28;;;;;;;8.07;4.00;;;;;;;;;;4763831;30;20298;-80
2024/03/28 02:20:54;;;;;;;3.60;3.30;;;;;;;;;;4748049;29;20434;-80
2024/03/28 02:23:20;;;;;;;6.00;3.50;;;;;;;;;;4757203;30;20553;-81
2024/03/28 02:25:49;;;;;;;4.80;3.70;;;;;;;;;;4797155;29;20967;-80
2024/03/28 02:28:15;;;;;;;4.07;3.60;;;;;;;;;;4746469;29;21072;-81
2024/03/28 02:30:41;;;;;;;4.65;3.40;;;;;;;;;;4769856;30;20194;-80
2024/03/28 02:33:07;;;;;;;3.85;3.30;;;;;;;;;;4770602;30;20203;-80
2024/03/28 02:35:33;;;;;;;4.25;3.80;;;;;;;;;;4790080;29;20226;-79
2024/03/28 02:37:59;;;;;;;4.97;4.40;;;;;;;;;;4777236;30;20202;-80
2024/03/28 02:40:26;;;;;;;3.53;3.00;;;;;;;;;;4735500;30;20666;-79
2024/03/28 02:42:52;;;;;;;4.18;3.78;;;;;;;;;;4760718;30;20623;-80
2024/03/28 02:45:18;;;;;;;4.55;4.05;;;;;;;;;;4792670;29;20324;-80
2024/03/28 02:47:44;;;;;;;4.82;3.60;;;;;;;;;;4785382;30;20261;-81
2024/03/28 02:50:10;;;;;;;3.70;3.10;;;;;;;;;;4827473;29;20236;-80
2024/03/28 02:52:39;;;;;;;4.90;3.40;;;;;;;;;;4731724;30;20248;-81
2024/03/28 02:55:06;;;;;;;5.55;3.42;;;;;;;;;;4731657;30;20442;-81
2024/03/28 02:57:32;;;;;;;5.55;3.85;;;;;;;;;;4721502;30;20549;-81
2024/03/28 02:59:57;;;;;;;3.78;3.38;;;;;;;;;;4752509;30;20196;-80
2024/03/28 03:02:23;;;;;;;3.90;3.50;;;;;;;;;;4736570;30;20208;-80
2024/03/28 03:04:50;;;;;;;4.03;3.20;;;;;;;;;;4757519;30;20447;-79
2024/03/28 03:07:16;;;;;;;4.20;3.80;;;;;;;;;;4722567;30;20881;-80
2024/03/28 03:09:42;;;;;;;4.20;3.80;;;;;;;;;;4738515;30;20208;-81
2024/03/28 03:12:08;;;;;;;4.60;3.65;;;;;;;;;;4706804;30;20304;-81
2024/03/28 03:14:34;;;;;;;4.60;4.03;;;;;;;;;;4716727;30;20212;-80
2024/03/28 03:17:00;;;;;;;3.53;3.20;;;;;;;;;;4701790;30;20441;-81
2024/03/28 03:19:26;;;;;;;4.50;4.10;;;;;;;;;;4705463;30;20456;-81
2024/03/28 03:21:52;;;;;;;5.20;3.67;;;;;;;;;;4751758;30;20529;-80
2024/03/28 03:24:19;;;;;;;7.13;3.80;;;;;;;;;;4764689;30;20456;-80
2024/03/28 03:26:52;;;;;;;5.22;4.10;;;;;;;;;;4793913;29;20992;-82
2024/03/28 03:34:47;;;;;;;5.65;3.45;;;;;;;;;;4753840;30;20536;-80
2024/03/28 03:37:14;;;;;;;9.50;3.72;;;;;;;;;;4786340;29;20628;-80
2024/03/28 03:39:40;;;;;;;4.50;4.10;;;;;;;;;;4808108;29;20205;-80
2024/03/28 03:42:08;;;;;;;4.27;3.70;;;;;;;;;;4822873;29;20687;-80
2024/03/28 03:44:34;;;;;;;3.88;3.53;;;;;;;;;;4858839;29;20527;-81
2024/03/28 03:47:01;;;;;;;4.18;3.78;;;;;;;;;;4803635;29;20233;-79
2024/03/28 03:49:27;;;;;;;5.20;3.17;;;;;;;;;;4803863;29;20302;-80
2024/03/28 03:51:53;;;;;;;3.78;3.13;;;;;;;;;;4803037;29;20287;-80
2024/03/28 03:54:19;;;;;;;4.37;3.97;;;;;;;;;;4797205;29;20226;-80
2024/03/28 03:56:45;;;;;;;7.63;3.75;;;;;;;;;;4751916;30;20446;-80
2024/03/28 03:59:11;;;;;;;7.67;3.70;;;;;;;;;;4737457;30;20639;-80
2024/03/28 04:01:37;;;;;;;4.00;3.47;;;;;;;;;;4736683;30;20553;-80
2024/03/28 04:04:03;;;;;;;4.87;3.57;;;;;;;;;;4734838;30;20291;-80
2024/03/28 04:06:29;;;;;;;4.55;3.75;;;;;;;;;;4741873;30;20517;-79
2024/03/28 04:08:55;;;;;;;5.03;3.60;;;;;;;;;;4671053;30;20623;-80
2024/03/28 04:11:21;;;;;;;6.00;4.07;;;;;;;;;;4613834;30;20620;-80
2024/03/28 04:13:47;;;;;;;5.43;3.80;;;;;;;;;;4620877;30;20264;-80
2024/03/28 04:16:13;;;;;;;4.53;3.97;;;;;;;;;;4644986;30;20427;-81
2024/03/28 04:18:39;;;;;;;4.50;3.37;;;;;;;;;;4685686;30;20425;-80
2024/03/28 04:21:05;;;;;;;4.47;3.88;;;;;;;;;;4669292;30;20592;-80
2024/03/28 04:23:31;;;;;;;8.77;3.67;;;;;;;;;;4675115;30;20214;-80
2024/03/28 04:25:58;;;;;;;3.60;3.20;;;;;;;;;;4668187;30;20454;-79
2024/03/28 04:28:24;;;;;;;5.60;3.53;;;;;;;;;;4664136;30;20263;-80
2024/03/28 04:30:50;;;;;;;4.37;2.97;;;;;;;;;;4694766;30;20224;-79
2024/03/28 04:33:17;;;;;;;4.53;3.63;;;;;;;;;;4720528;30;20958;-80
2024/03/28 04:35:43;;;;;;;5.63;3.58;;;;;;;;;;4689550;30;20213;-80
2024/03/28 04:38:09;;;;;;;3.55;3.15;;;;;;;;;;4691675;30;20636;-79
2024/03/28 04:40:35;;;;;;;4.15;3.60;;;;;;;;;;4706425;30;20202;-80
2024/03/28 04:43:01;;;;;;;4.00;3.60;;;;;;;;;;4701869;30;20644;-80
2024/03/28 04:45:27;;;;;;;4.10;3.20;;;;;;;;;;4689771;30;20436;-80
2024/03/28 04:47:53;;;;;;;4.47;3.43;;;;;;;;;;4692519;30;20496;-79
2024/03/28 04:50:20;;;;;;;4.03;3.15;;;;;;;;;;4734250;30;20888;-80
2024/03/28 04:52:46;;;;;;;4.63;3.55;;;;;;;;;;4724205;30;20209;-80
2024/03/28 04:55:12;;;;;;;3.42;3.08;;;;;;;;;;4684786;30;20305;-80
2024/03/28 04:57:38;;;;;;;3.72;3.13;;;;;;;;;;4667155;30;20585;-80
2024/03/28 05:00:08;;;;;;;4.97;3.38;;;;;;;;;;4691708;30;20286;-79
2024/03/28 05:02:37;;;;;;;4.72;3.22;;;;;;;;;;4735800;30;20205;-80
2024/03/28 05:05:04;;;;;;;3.65;2.90;;;;;;;;;;4739149;30;20215;-80
2024/03/28 05:07:31;;;;;;;3.20;2.80;;;;;;;;;;4719055;30;20236;-80
2024/03/28 05:09:57;;;;;;;3.95;2.72;;;;;;;;;;4738754;30;20209;-80
2024/03/28 05:12:23;;;;;;;3.53;2.95;;;;;;;;;;4752634;30;20215;-80
2024/03/28 05:14:49;;;;;;;3.72;2.60;;;;;;;;;;4769588;30;20208;-80
2024/03/28 05:17:15;;;;;;;3.88;2.42;;;;;;;;;;4790164;29;20210;-80
2024/03/28 05:19:41;;;;;;;2.73;2.40;;;;;;;;;;4806907;29;20213;-81
2024/03/28 05:22:07;;;;;;;3.40;3.00;;;;;;;;;;4838102;29;20512;-80
2024/03/28 05:24:34;;;;;;;7.15;3.00;;;;;;;;;;4809317;29;20291;-80
2024/03/28 05:27:00;;;;;;;3.75;3.10;;;;;;;;;;4797439;29;20234;-80
2024/03/28 05:29:27;;;;;;;4.75;3.60;;;;;;;;;;4810566;29;20202;-80
2024/03/28 05:31:53;;;;;;;6.88;4.55;;;;;;;;;;4790435;29;20208;-80
2024/03/28 05:34:19;;;;;;;8.40;5.43;;;;;;;;;;4756621;30;20206;-80
2024/03/28 05:36:44;;;;;;;5.60;5.00;;;;;;;;;;4751675;30;20214;-81
2024/03/28 05:39:10;;;;;;;6.73;4.87;;;;;;;;;;4756589;30;20291;-81
2024/03/28 05:41:36;;;;;;;6.73;4.10;;;;;;;;;;4770161;30;20816;-80
2024/03/28 05:44:02;;;;;;;6.63;3.95;;;;;;;;;;4739161;30;20451;-80
2024/03/28 05:46:28;;;;;;;5.00;3.17;;;;;;;;;;4760022;30;20271;-80
2024/03/28 05:48:55;;;;;;;4.35;2.90;;;;;;;;;;4770794;30;20232;-79
2024/03/28 05:51:22;;;;;;;5.45;3.20;;;;;;;;;;4783890;29;20213;-81
2024/03/28 05:53:48;;;;;;;3.05;2.72;;;;;;;;;;4793185;29;20258;-80
2024/03/28 05:56:20;;;;;;;4.25;2.85;;;;;;;;;;4775768;29;20199;-81
2024/03/28 05:58:46;;;;;;;3.33;2.97;;;;;;;;;;4786797;29;20204;-81
2024/03/28 06:01:13;;;;;;;5.57;3.20;;;;;;;;;;4757768;30;20207;-82
2024/03/28 06:03:39;;;;;;;3.55;3.08;;;;;;;;;;4778087;29;20228;-81
2024/03/28 06:06:05;;;;;;;5.90;3.10;;;;;;;;;;4744137;30;20620;-79
2024/03/28 06:08:31;;;;;;;4.07;3.08;;;;;;;;;;4755744;30;20880;-80
2024/03/28 06:10:57;;;;;;;4.50;2.77;;;;;;;;;;4740045;30;20209;-80
2024/03/28 06:13:23;;;;;;;4.13;2.93;;;;;;;;;;4738982;30;20959;-80
2024/03/28 06:15:50;;;;;;;3.83;3.40;;;;;;;;;;4725985;30;20653;-80
2024/03/28 06:18:16;;;;;;;4.10;2.90;;;;;;;;;;4767362;30;20454;-80
2024/03/28 06:20:42;;;;;;;9.65;2.88;;;;;;;;;;4770617;30;20599;-80
2024/03/28 06:23:08;;;;;;;4.10;3.58;;;;;;;;;;4808287;29;20200;-80
2024/03/28 06:25:38;;;;;;;8.05;3.28;;;;;;;;;;4786783;29;20209;-79
2024/03/28 06:28:05;;;;;;;3.53;3.13;;;;;;;;;;4782546;29;20224;-80
2024/03/28 06:30:31;;;;;;;3.70;3.17;;;;;;;;;;4779026;29;20242;-80
2024/03/28 06:32:57;;;;;;;5.77;3.53;;;;;;;;;;4787525;29;20231;-81
2024/03/28 06:35:23;;;;;;;4.73;3.73;;;;;;;;;;4791676;29;20441;-80
2024/03/28 06:37:49;;;;;;;4.57;3.60;;;;;;;;;;4768270;30;20477;-81
2024/03/28 06:40:15;;;;;;;5.05;3.10;;;;;;;;;;4787631;29;20432;-80
2024/03/28 06:42:42;;;;;;;4.18;2.70;;;;;;;;;;4766104;30;20231;-81
2024/03/28 06:45:08;;;;;;;2.63;2.40;;;;;;;;;;4755417;29;20549;-81
2024/03/28 06:47:34;;;;;;;6.20;2.80;;;;;;;;;;4772757;30;20236;-81
2024/03/28 06:50:00;;;;;;;2.90;2.40;;;;;;;;;;4763041;30;20200;-81
2024/03/28 06:52:26;;;;;;;2.80;2.17;;;;;;;;;;4740457;30;20550;-81
2024/03/28 06:54:52;;;;;;;4.25;2.70;;;;;;;;;;4758656;30;20437;-81
2024/03/28 06:57:18;;;;;;;3.35;2.90;;;;;;;;;;4836631;29;20658;-80
2024/03/28 06:59:44;;;;;;;4.20;2.60;;;;;;;;;;4820799;29;20207;-80
2024/03/28 07:02:10;;;;;;;3.23;2.57;;;;;;;;;;4803409;29;20845;-82
2024/03/28 07:04:36;;;;;;;2.57;2.30;;;;;;;;;;4771780;29;20453;-81
2024/03/28 07:07:02;;;;;;;5.63;2.57;;;;;;;;;;4763149;29;20992;-81
2024/03/28 07:09:28;;;;;;;2.42;2.20;;;;;;;;;;4758407;29;20517;-81
2024/03/28 07:11:55;;;;;;;3.45;2.33;;;;;;;;;;4760345;30;20204;-81
2024/03/28 07:14:21;;;;;;;3.90;2.25;;;;;;;;;;4749828;30;20292;-80
2024/03/28 07:16:47;;;;;;;2.92;2.28;;;;;;;;;;4771056;30;20217;-82
2024/03/28 07:19:13;;;;;;;2.53;2.10;;;;;;;;;;4730636;30;20248;-80
2024/03/28 07:21:39;;;;;;;6.40;1.97;;;;;;;;;;4769443;30;20963;-81
2024/03/28 07:24:05;;;;;;;3.57;2.67;;;;;;;;;;4759849;30;20544;-81
2024/03/28 07:26:31;;;;;;;3.30;1.95;;;;;;;;;;4754472;30;20485;-81
2024/03/28 07:28:57;;;;;;;2.13;1.90;;;;;;;;;;4742487;30;20212;-81
2024/03/28 07:31:24;;;;;;;5.43;1.55;;;;;;;;;;4769644;30;20655;-83
2024/03/28 07:33:50;;;;;;;2.97;2.10;;;;;;;;;;4749851;30;20559;-83
2024/03/28 07:36:16;;;;;;;3.28;1.40;;;;;;;;;;4787045;29;20582;-82
2024/03/28 07:38:45;;;;;;;2.53;1.50;;;;;;;;;;4704693;30;20232;-83
2024/03/28 07:41:11;;;;;;;2.10;1.77;;;;;;;;;;4737801;30;20193;-85
2024/03/28 07:43:37;;;;;;;4.50;1.30;;;;;;;;;;4750203;30;20247;-83
2024/03/28 07:46:04;;;;;;;6.73;1.60;;;;;;;;;;4755203;30;20426;-84
2024/03/28 07:48:30;;;;;;;3.10;1.17;;;;;;;;;;4766129;29;20480;-83
2024/03/28 07:51:03;;;;;;;1.30;1.20;;;;;;;;;;4756714;30;20557;-84
2024/03/28 07:53:29;;;;;;;1.20;1.05;;;;;;;;;;4754488;30;20219;-83
2024/03/28 07:55:55;;;;;;;1.35;1.05;;;;;;;;;;4786589;29;20203;-85
2024/03/28 07:58:21;;;;;;;1.20;0.80;;;;;;;;;;4780066;29;20216;-84
2024/03/28 08:00:47;;;;;;;3.40;0.93;;;;;;;;;;4848248;29;20200;-84
2024/03/28 08:03:18;;;;;;;5.63;1.15;;;;;;;;;;4800900;29;20214;-85
2024/03/28 08:05:46;;;;;;;1.10;0.80;;;;;;;;;;4811528;29;20204;-84
2024/03/28 08:08:12;;;;;;;1.10;0.90;;;;;;;;;;4814874;29;20306;-83
2024/03/28 08:10:38;;;;;;;1.13;0.88;;;;;;;;;;4827198;29;20243;-84
2024/03/28 08:13:04;;;;;;;1.10;0.90;;;;;;;;;;4811230;29;20203;-83
2024/03/28 08:15:33;;;;;;;2.70;1.00;;;;;;;;;;4871654;29;20576;-83
2024/03/28 08:18:00;;;;;;;1.33;0.98;;;;;;;;;;4885520;29;20448;-83
2024/03/28 08:20:27;;;;;;;1.98;1.17;;;;;;;;;;4807366;29;20202;-82
2024/03/28 08:22:54;;;;;;;1.42;0.90;;;;;;;;;;4801576;29;20265;-83
2024/03/28 08:25:22;;;;;;;1.60;1.10;;;;;;;;;;4785199;29;20210;-83
2024/03/28 08:27:48;;;;;;;1.15;1.00;;;;;;;;;;4760584;30;20239;-83
2024/03/28 08:30:15;;;;;;;1.48;1.33;;;;;;;;;;4749256;29;20213;-83
2024/03/28 08:32:41;;;;;;;1.40;1.30;;;;;;;;;;4771755;30;20294;-82
2024/03/28 08:35:10;;;;;;;1.48;0.90;;;;;;;;;;4758279;30;20277;-83
2024/03/28 08:37:39;;;;;;;2.50;1.27;;;;;;;;;;4759997;30;20231;-82
2024/03/28 08:40:09;;;;;;;1.42;1.10;;;;;;;;;;4756650;30;20291;-83
2024/03/28 08:42:35;;;;;;;2.92;1.10;;;;;;;;;;4745276;30;20279;-83
2024/03/28 08:45:01;;;;;;;2.85;0.85;;;;;;;;;;4810033;29;20737;-82
2024/03/28 08:47:27;;;;;;;1.83;1.50;;;;;;;;;;4764359;30;20323;-82
2024/03/28 08:49:53;;;;;;;1.08;0.90;;;;;;;;;;4747441;30;20306;-81
2024/03/28 08:52:19;;;;;;;2.03;0.98;;;;;;;;;;4798676;29;20216;-83
2024/03/28 08:54:45;;;;;;;1.50;1.40;;;;;;;;;;4808590;29;20207;-83
2024/03/28 08:57:12;;;;;;;2.50;1.40;;;;;;;;;;4813202;29;20949;-82
2024/03/28 08:59:39;;;;;;;1.25;1.00;;;;;;;;;;4777816;29;21140;-82
2024/03/28 09:02:05;;;;;;;2.25;1.65;;;;;;;;;;4786474;29;20198;-83
2024/03/28 09:04:31;;;;;;;10.27;5.05;;;;;;;;;;4797701;29;20607;-82
2024/03/28 09:06:58;;;;;;;10.23;5.40;;;;;;;;;;4809831;29;20229;-82
2024/03/28 09:09:24;;;;;;;3.95;2.58;;;;;;;;;;4832558;29;20453;-81
2024/03/28 09:11:50;;;;;;;4.57;2.95;;;;;;;;;;4819817;29;20190;-81
2024/03/28 09:14:16;;;;;;;3.03;2.30;;;;;;;;;;4844436;29;20739;-83
2024/03/28 09:16:42;;;;;;;3.13;2.67;;;;;;;;;;4787758;29;20277;-82
2024/03/28 09:19:08;;;;;;;2.03;1.70;;;;;;;;;;4791312;29;20425;-81
2024/03/28 09:21:35;;;;;;;1.95;1.30;;;;;;;;;;4781941;29;20199;-82
2024/03/28 09:24:01;;;;;;;3.70;2.50;;;;;;;;;;4793049;29;20199;-83
2024/03/28 09:26:28;;;;;;;2.07;1.70;;;;;;;;;;4782008;29;20265;-83
2024/03/28 09:28:58;;;;;;;2.15;1.00;;;;;;;;;;4769777;29;20427;-89
2024/03/28 09:31:24;;;;;;;3.88;2.38;;;;;;;;;;4816877;29;20205;-91
2024/03/28 09:33:50;;;;;;;3.00;1.90;;;;;;;;;;4794264;29;20790;-91
2024/03/28 09:36:17;;;;;;;1.00;0.90;;;;;;;;;;4775037;30;20214;-79
2024/03/28 09:38:50;;;;;;;1.25;0.90;;;;;;;;;;4792557;29;20215;-80
2024/03/28 09:41:36;;;;;;;0.80;0.68;;;;;;;;;;4762122;29;20200;-79
2024/03/28 09:44:06;;;;;;;0.90;0.70;;;;;;;;;;4735518;29;20223;-80
2024/03/28 09:46:34;;;;;;;0.90;0.70;;;;;;;;;;4720754;30;20201;-78
2024/03/28 09:49:01;;;;;;;1.65;0.60;;;;;;;;;;4752717;30;20257;-80
2024/03/28 09:51:27;;;;;;;0.70;0.60;;;;;;;;;;4760026;30;20266;-79
2024/03/28 09:53:54;;;;;;;0.70;0.50;;;;;;;;;;4753379;30;20890;-80
2024/03/28 09:56:20;;;;;;;1.10;0.60;;;;;;;;;;4791357;29;20199;-78
2024/03/28 09:58:46;;;;;;;0.80;0.60;;;;;;;;;;4764771;30;20216;-79
2024/03/28 10:01:14;;;;;;;1.60;0.60;;;;;;;;;;4790352;29;20202;-79
2024/03/28 10:03:41;;;;;;;0.75;0.50;;;;;;;;;;4789774;29;20259;-78
2024/03/28 10:06:07;;;;;;;0.70;0.50;;;;;;;;;;4807312;29;20193;-79
2024/03/28 10:08:34;;;;;;;1.30;0.70;;;;;;;;;;4804021;29;20226;-79
2024/03/28 10:11:00;;;;;;;1.13;0.52;;;;;;;;;;4823027;29;20462;-79
2024/03/28 10:13:35;;;;;;;1.33;0.60;;;;;;;;;;4805677;29;20247;-79
2024/03/28 10:16:12;;;;;;;1.10;0.50;;;;;;;;;;4828391;29;20341;-80
2024/03/28 10:18:38;;;;;;;0.70;0.50;;;;;;;;;;4840796;29;20196;-79
2024/03/28 10:21:04;;;;;;;0.90;0.60;;;;;;;;;;4828560;29;20224;-80
2024/03/28 10:23:31;;;;;;;0.70;0.50;;;;;;;;;;4794593;29;20207;-80
2024/03/28 10:25:58;;;;;;;2.97;0.70;;;;;;;;;;4798959;29;20206;-78
2024/03/28 10:28:29;;;;;;;0.70;0.50;;;;;;;;;;4830225;29;20252;-79
2024/03/28 10:30:55;;;;;;;1.00;0.63;;;;;;;;;;4828897;29;20259;-79
2024/03/28 10:33:21;;;;;;;1.20;0.80;;;;;;;;;;4812967;29;20190;-78
2024/03/28 10:35:57;;;;;;;0.70;0.50;;;;;;;;;;4792237;29;20339;-80
2024/03/28 10:38:23;;;;;;;0.95;0.60;;;;;;;;;;4808777;29;20444;-79
2024/03/28 10:40:50;;;;;;;0.90;0.60;;;;;;;;;;4797677;29;20211;-80
2024/03/28 10:43:17;;;;;;;1.40;0.85;;;;;;;;;;4824832;29;20245;-79
2024/03/28 10:45:44;;;;;;;0.95;0.73;;;;;;;;;;4843882;29;20204;-80
2024/03/28 10:48:13;;;;;;;1.27;0.88;;;;;;;;;;4805067;29;20711;-80
2024/03/28 10:50:48;;;;;;;4.63;0.80;;;;;;;;;;4832319;29;20246;-79
2024/03/28 10:53:20;;;;;;;1.20;0.70;;;;;;;;;;4847882;29;20208;-80
2024/03/28 10:55:46;;;;;;;0.90;0.60;;;;;;;;;;4824762;29;20190;-81
2024/03/28 10:58:12;;;;;;;1.67;0.75;;;;;;;;;;4813596;29;20197;-79
2024/03/28 11:00:39;;;;;;;2.53;0.70;;;;;;;;;;4826244;29;20225;-79
2024/03/28 11:03:05;;;;;;;1.30;0.90;;;;;;;;;;4827715;29;20213;-80
2024/03/28 11:05:32;;;;;;;3.05;0.60;;;;;;;;;;4811034;29;20281;-80
2024/03/28 11:07:58;;;;;;;2.03;0.68;;;;;;;;;;4830984;29;20244;-80
2024/03/28 11:10:24;;;;;;;1.17;0.75;;;;;;;;;;4808739;29;20206;-79
2024/03/28 11:12:52;;;;;;;2.70;0.70;;;;;;;;;;4810530;29;20623;-80
2024/03/28 11:15:19;;;;;;;1.65;0.70;;;;;;;;;;4879763;29;20435;-78
2024/03/28 11:17:45;;;;;;;0.80;0.60;;;;;;;;;;4844892;29;20621;-79
2024/03/28 11:20:16;;;;;;;5.17;0.60;;;;;;;;;;4796421;29;20207;-77
2024/03/28 11:22:42;;;;;;;4.63;0.77;;;;;;;;;;4844852;29;20495;-78
2024/03/28 11:25:26;;;;;;;3.90;0.60;;;;;;;;;;4827277;29;20510;-77
2024/03/28 11:28:09;;;;;;;1.67;0.53;;;;;;;;;;4863378;29;20476;-78
2024/03/28 11:30:36;;;;;;;0.93;0.50;;;;;;;;;;4862306;29;20444;-79
2024/03/28 11:33:03;;;;;;;0.87;0.60;;;;;;;;;;4860880;29;20501;-78
2024/03/28 11:35:29;;;;;;;2.83;0.80;;;;;;;;;;4841105;29;20425;-80
2024/03/28 11:38:07;;;;;;;2.67;0.57;;;;;;;;;;4832787;29;20445;-78
2024/03/28 11:40:34;;;;;;;1.17;0.67;;;;;;;;;;4795428;29;20467;-78
2024/03/28 11:43:08;;;;;;;1.10;0.70;;;;;;;;;;4752059;30;20482;-77
2024/03/28 11:45:34;;;;;;;2.60;0.70;;;;;;;;;;4738261;30;20480;-82
2024/03/28 11:48:00;;;;;;;4.17;0.80;;;;;;;;;;4761958;30;21002;-79
2024/03/28 11:50:27;;;;;;;1.40;0.73;;;;;;;;;;4763258;29;20449;-78
2024/03/28 11:52:53;;;;;;;4.27;0.77;;;;;;;;;;4827985;29;21013;-78
2024/03/28 11:55:24;;;;;;;1.67;0.80;;;;;;;;;;4828476;29;20826;-78
2024/03/28 11:57:50;;;;;;;3.17;0.83;;;;;;;;;;4756500;30;20465;-79
2024/03/28 12:00:19;;;;;;;1.47;0.63;;;;;;;;;;4821445;29;20423;-79
2024/03/28 12:02:55;;;;;;;2.40;0.70;;;;;;;;;;4800308;29;20471;-79
2024/03/28 12:05:21;;;;;;;0.90;0.53;;;;;;;;;;4817157;29;20442;-79
2024/03/28 12:07:47;;;;;;;0.90;0.67;;;;;;;;;;4788241;29;20527;-78
2024/03/28 12:10:17;;;;;;;2.30;0.60;;;;;;;;;;4771200;30;20449;-78
2024/03/28 12:12:43;;;;;;;1.17;0.67;;;;;;;;;;4763699;30;20508;-79
2024/03/28 12:15:09;;;;;;;1.40;0.73;;;;;;;;;;4802172;29;20598;-80
2024/03/28 12:17:36;;;;;;;1.20;0.63;;;;;;;;;;4769741;30;21006;-79
2024/03/28 12:20:06;;;;;;;1.00;0.60;;;;;;;;;;4702932;30;20441;-78
2024/03/28 12:22:32;;;;;;;1.20;0.70;;;;;;;;;;4674673;30;20454;-78
2024/03/28 12:24:58;;;;;;;1.57;0.70;;;;;;;;;;4737851;30;20913;-78
2024/03/28 12:27:24;;;;;;;1.50;0.73;;;;;;;;;;4753291;30;20533;-79
2024/03/28 12:29:49;;;;;;;1.30;0.70;;;;;;;;;;4753188;30;20531;-77
2024/03/28 12:32:16;;;;;;;0.80;0.40;;;;;;;;;;4792589;29;20453;-77
2024/03/28 12:34:51;;;;;;;0.70;0.50;;;;;;;;;;4790438;29;20464;-78
2024/03/28 12:37:17;;;;;;;1.08;0.50;;;;;;;;;;4811807;29;20459;-78
2024/03/28 12:39:43;;;;;;;0.75;0.50;;;;;;;;;;4739216;30;20301;-78
2024/03/28 12:42:11;;;;;;;0.70;0.60;;;;;;;;;;4723462;30;20525;-79
2024/03/28 12:44:37;;;;;;;1.00;0.47;;;;;;;;;;4723964;30;20448;-79
2024/03/28 12:47:03;;;;;;;1.67;0.50;;;;;;;;;;4708108;30;20241;-80
2024/03/28 12:49:29;;;;;;;1.23;0.60;;;;;;;;;;4672330;30;20220;-77
2024/03/28 12:51:56;;;;;;;0.80;0.60;;;;;;;;;;4691297;30;20208;-78
2024/03/28 12:54:22;;;;;;;1.15;0.52;;;;;;;;;;4641139;30;20468;-80
2024/03/28 12:56:51;;;;;;;0.60;0.40;;;;;;;;;;4635815;30;20204;-80
2024/03/28 12:59:17;;;;;;;0.90;0.55;;;;;;;;;;4628062;30;20441;-78
2024/03/28 13:01:43;;;;;;;0.70;0.50;;;;;;;;;;4656445;30;20209;-78
2024/03/28 13:04:08;;;;;;;0.80;0.50;;;;;;;;;;4668885;30;20534;-78
2024/03/28 13:06:34;;;;;;;0.80;0.60;;;;;;;;;;4669221;30;20458;-79
2024/03/28 13:09:02;;;;;;;1.97;0.73;;;;;;;;;;4654468;30;20869;-79
2024/03/28 13:11:28;;;;;;;0.60;0.50;;;;;;;;;;4677208;30;20458;-79
2024/03/28 13:13:54;;;;;;;1.53;0.50;;;;;;;;;;4684604;30;20258;-79
2024/03/28 13:16:21;;;;;;;2.93;0.60;;;;;;;;;;4689819;30;20426;-79
2024/03/28 13:18:47;;;;;;;1.17;0.50;;;;;;;;;;4617839;30;20442;-78
2024/03/28 13:21:13;;;;;;;0.70;0.50;;;;;;;;;;4639792;30;20635;-78
2024/03/28 13:23:39;;;;;;;0.73;0.50;;;;;;;;;;4640084;30;20455;-78
2024/03/28 13:26:05;;;;;;;2.00;0.70;;;;;;;;;;4637662;30;20630;-78
2024/03/28 13:28:31;;;;;;;2.57;1.30;;;;;;;;;;4641865;30;20535;-78
2024/03/28 13:30:57;;;;;;;3.37;0.63;;;;;;;;;;4685910;30;20936;-80
2024/03/28 13:33:23;;;;;;;1.20;0.60;;;;;;;;;;4728849;30;20531;-77
2024/03/28 13:35:49;;;;;;;1.43;0.60;;;;;;;;;;4677707;30;21094;-77
2024/03/28 13:38:15;;;;;;;1.10;0.63;;;;;;;;;;4708720;30;20460;-77
2024/03/28 13:40:41;;;;;;;0.70;0.50;;;;;;;;;;4724518;30;20432;-78
2024/03/28 13:43:07;;;;;;;1.17;0.60;;;;;;;;;;4698067;30;20625;-79
2024/03/28 13:45:34;;;;;;;1.33;0.60;;;;;;;;;;4772355;30;20504;-78
2024/03/28 13:48:00;;;;;;;8.00;0.80;;;;;;;;;;4762534;30;20518;-78
2024/03/28 13:50:26;;;;;;;1.40;0.50;;;;;;;;;;4785879;29;20429;-77
2024/03/28 13:52:53;;;;;;;2.30;0.50;;;;;;;;;;4754015;30;20447;-78
2024/03/28 13:55:19;;;;;;;2.30;0.63;;;;;;;;;;4706820;30;20430;-77
2024/03/28 13:57:45;;;;;;;0.97;0.53;;;;;;;;;;4700810;30;20453;-79
2024/03/28 14:00:11;;;;;;;1.23;0.60;;;;;;;;;;4694929;30;20983;-78
2024/03/28 14:02:37;;;;;;;0.83;0.50;;;;;;;;;;4707258;30;20461;-78
2024/03/28 14:05:03;;;;;;;1.00;0.60;;;;;;;;;;4742506;30;20447;-77
2024/03/28 14:07:29;;;;;;;1.90;0.70;;;;;;;;;;4753370;30;21042;-78
2024/03/28 14:09:55;;;;;;;3.63;0.70;;;;;;;;;;4687505;30;20474;-78
2024/03/28 14:12:21;;;;;;;1.73;0.50;;;;;;;;;;4708801;30;20460;-77
2024/03/28 14:14:47;;;;;;;1.53;0.60;;;;;;;;;;4671900;30;21102;-78
2024/03/28 14:17:13;;;;;;;4.93;0.70;;;;;;;;;;4651400;30;20463;-78
2024/03/28 14:19:39;;;;;;;1.90;0.50;;;;;;;;;;4664263;30;20451;-78
2024/03/28 14:22:05;;;;;;;2.60;0.70;;;;;;;;;;4641645;30;20536;-78
2024/03/28 14:24:31;;;;;;;2.27;0.70;;;;;;;;;;4628643;30;20441;-78
2024/03/28 14:26:57;;;;;;;1.07;0.70;;;;;;;;;;4632193;30;21087;-79
2024/03/28 14:29:23;;;;;;;1.03;0.70;;;;;;;;;;4627785;30;20458;-77
2024/03/28 14:31:49;;;;;;;1.60;0.60;;;;;;;;;;4654312;30;20501;-78
2024/03/28 14:34:16;;;;;;;2.23;0.90;;;;;;;;;;4642369;30;20456;-78
2024/03/28 14:36:43;;;;;;;1.00;0.50;;;;;;;;;;4620903;30;20520;-78
2024/03/28 14:39:09;;;;;;;2.00;0.77;;;;;;;;;;4656452;30;20442;-79
2024/03/28 14:41:35;;;;;;;2.00;0.70;;;;;;;;;;4667422;30;20435;-77
2024/03/28 14:44:01;;;;;;;1.37;0.80;;;;;;;;;;4625402;30;20453;-78
2024/03/28 14:46:27;;;;;;;1.73;0.60;;;;;;;;;;4650609;30;20444;-78